Time;durP1;ratioP1;P1;durP2;ratioP2;P2;SDS_P1;SDS_P2;PMS_P1;PMS_P2;Temp;Humidity;BMP_temperature;BMP_pressure;BME280_temperature;BME280_humidity;BME280_pressure;Samples;Min_cycle;Max_cycle;Signal;HPM_P1;HPM_P2
2022/04/08 00:01:34;;;;;;;9.60;8.80;;;;;;;21.86;35.77;93778.84;6084965;28;102988;-57
2022/04/08 00:04:35;;;;;;;8.57;7.87;;;;;;;21.90;35.59;93801.03;6087802;28;104059;-57
2022/04/08 00:07:37;;;;;;;9.07;8.27;;;;;;;21.86;35.82;93794.84;6088830;28;103967;-59
2022/04/08 00:10:39;;;;;;;8.67;7.87;;;;;;;21.88;35.61;93797.94;6077198;28;103159;-57
2022/04/08 00:13:41;;;;;;;8.87;8.07;;;;;;;21.84;36.02;93790.94;6084127;28;103358;-59
2022/04/08 00:16:43;;;;;;;7.97;7.27;;;;;;;21.88;35.65;93803.25;6085511;28;103284;-58
2022/04/08 00:19:44;;;;;;;8.47;7.73;;;;;;;21.86;36.02;93810.81;6081128;28;103000;-58
2022/04/08 00:22:47;;;;;;;8.00;7.40;;;;;;;21.88;35.48;93813.13;6083818;28;103674;-58
2022/04/08 00:25:48;;;;;;;7.43;6.83;;;;;;;21.83;35.52;93795.47;6083758;28;104344;-57
2022/04/08 00:28:50;;;;;;;7.77;7.17;;;;;;;21.83;35.91;93810.69;6083281;28;103947;-57
2022/04/08 00:31:57;;;;;;;8.77;8.07;;;;;;;21.80;35.74;93801.44;6079716;28;103170;-57
2022/04/08 00:35:00;;;;;;;8.70;8.00;;;;;;;21.79;35.54;93811.31;6083542;28;103205;-58
2022/04/08 00:38:02;;;;;;;8.10;7.50;;;;;;;21.85;35.51;93819.13;6088402;28;103680;-57
2022/04/08 00:41:03;;;;;;;7.60;7.00;;;;;;;21.85;35.54;93830.56;6088029;28;103313;-58
2022/04/08 00:44:05;;;;;;;7.40;6.80;;;;;;;21.81;35.50;93827.75;6078144;28;104309;-58
2022/04/08 00:47:07;;;;;;;7.40;6.73;;;;;;;21.81;35.86;93829.63;6083589;28;103254;-57
2022/04/08 00:50:10;;;;;;;7.37;6.77;;;;;;;21.82;35.87;93836.53;6084292;28;103235;-58
2022/04/08 00:53:12;;;;;;;7.73;7.13;;;;;;;21.71;35.36;93808.78;6061833;28;103179;-58
2022/04/08 00:56:15;;;;;;;7.20;6.70;;;;;;;21.84;35.42;93825.53;6084908;28;102811;-61
2022/04/08 00:59:17;;;;;;;6.67;6.17;;;;;;;21.79;35.70;93818.53;6084223;28;103317;-58
2022/04/08 01:02:20;;;;;;;6.90;6.40;;;;;;;21.80;35.75;93818.19;6083714;28;103441;-57
2022/04/08 01:05:22;;;;;;;6.90;6.30;;;;;;;21.83;35.61;93814.13;6061660;28;104269;-57
2022/04/08 01:08:28;;;;;;;7.17;6.57;;;;;;;21.83;35.61;93821.34;6098751;28;103135;-58
2022/04/08 01:11:30;;;;;;;7.37;6.70;;;;;;;21.80;35.15;93825.41;6084443;28;103231;-58
2022/04/08 01:14:32;;;;;;;6.43;5.93;;;;;;;21.75;35.12;93817.66;6083756;28;104507;-59
2022/04/08 01:17:34;;;;;;;7.17;6.57;;;;;;;21.80;35.52;93836.84;6079695;28;103297;-57
2022/04/08 01:20:35;;;;;;;6.83;6.37;;;;;;;21.80;35.34;93822.75;6084093;28;104554;-59
2022/04/08 01:23:38;;;;;;;7.00;6.50;;;;;;;21.77;35.47;93829.53;6083462;28;103964;-57
2022/04/08 01:26:41;;;;;;;6.50;6.00;;;;;;;21.82;35.41;93836.53;6078592;28;103249;-57
2022/04/08 01:29:43;;;;;;;6.07;5.63;;;;;;;21.81;35.52;93840.28;6083780;28;103310;-59
2022/04/08 01:32:45;;;;;;;6.50;6.00;;;;;;;21.80;35.02;93841.38;6079692;28;102968;-57
2022/04/08 01:35:46;;;;;;;6.30;5.70;;;;;;;21.80;35.33;93844.06;6081908;28;103185;-58
2022/04/08 01:38:48;;;;;;;6.53;6.03;;;;;;;21.79;35.18;93842.50;6078093;28;104776;-57
2022/04/08 01:41:50;;;;;;;5.40;5.00;;;;;;;21.79;35.46;93842.50;6083509;28;102783;-58
2022/04/08 01:44:53;;;;;;;6.20;5.73;;;;;;;21.75;35.30;93837.06;6084472;28;102953;-57
2022/04/08 01:47:55;;;;;;;6.37;5.80;;;;;;;21.70;35.49;93833.88;6079123;28;103342;-58
2022/04/08 01:50:57;;;;;;;5.90;5.50;;;;;;;21.77;35.27;93842.06;6082897;28;103198;-58
2022/04/08 01:53:59;;;;;;;5.80;5.30;;;;;;;21.75;35.34;93846.94;6099157;28;103765;-58
2022/04/08 01:57:00;;;;;;;6.17;5.63;;;;;;;21.74;34.77;93832.09;6100300;28;103300;-58
2022/04/08 02:00:04;;;;;;;5.37;4.97;;;;;;;21.77;35.16;93837.50;6076486;28;103307;-57
2022/04/08 02:03:06;;;;;;;5.40;5.00;;;;;;;21.73;35.19;93841.19;6082045;28;104072;-58
2022/04/08 02:06:08;;;;;;;5.27;4.87;;;;;;;21.74;35.47;93850.72;6083174;28;104305;-57
2022/04/08 02:09:11;;;;;;;5.73;5.33;;;;;;;21.71;35.38;93857.50;6084233;28;103049;-57
2022/04/08 02:12:13;;;;;;;4.70;4.40;;;;;;;21.76;35.19;93859.16;6077554;28;105791;-57
2022/04/08 02:15:15;;;;;;;5.37;4.97;;;;;;;21.72;35.09;93859.03;6082244;28;103294;-58
2022/04/08 02:18:17;;;;;;;4.87;4.50;;;;;;;21.72;34.87;93840.41;6086627;28;104782;-57
2022/04/08 02:21:19;;;;;;;5.17;4.77;;;;;;;21.73;35.01;93849.94;6078812;28;103241;-58
2022/04/08 02:24:21;;;;;;;4.53;4.20;;;;;;;21.73;34.92;93865.91;6087969;28;104126;-58
2022/04/08 02:27:23;;;;;;;5.90;5.50;;;;;;;21.73;35.20;93878.47;6087405;28;104177;-57
2022/04/08 02:30:25;;;;;;;5.47;5.07;;;;;;;21.62;35.04;93850.69;6086133;28;103670;-57
2022/04/08 02:33:28;;;;;;;5.73;5.23;;;;;;;21.69;35.26;93865.03;6081248;28;103315;-59
2022/04/08 02:36:30;;;;;;;4.77;4.37;;;;;;;21.62;35.08;93864.78;6084788;28;104443;-58
2022/04/08 02:39:32;;;;;;;4.77;4.37;;;;;;;21.72;34.95;93883.00;6096435;28;104465;-58
2022/04/08 02:42:34;;;;;;;4.37;4.07;;;;;;;21.69;35.33;93875.69;6085159;28;103292;-60
2022/04/08 02:45:36;;;;;;;4.47;4.17;;;;;;;21.69;35.05;93890.88;6079800;28;103087;-58
2022/04/08 02:48:38;;;;;;;4.53;4.23;;;;;;;21.70;34.66;93903.88;6076211;28;103063;-57
2022/04/08 02:51:40;;;;;;;4.53;4.17;;;;;;;21.70;34.51;93914.50;6085800;28;102963;-57
2022/04/08 02:54:42;;;;;;;4.13;3.83;;;;;;;21.65;35.29;93896.06;6079843;28;103157;-58
2022/04/08 02:57:47;;;;;;;4.30;4.00;;;;;;;21.67;35.34;93898.41;6086870;28;103338;-59
2022/04/08 03:00:49;;;;;;;4.27;3.97;;;;;;;21.69;34.73;93914.84;6082231;28;102977;-58
2022/04/08 03:03:51;;;;;;;5.40;4.77;;;;;;;21.64;34.87;93899.84;6093909;28;103026;-59
2022/04/08 03:06:54;;;;;;;6.23;4.00;;;;;;;21.67;35.43;93928.47;6083087;28;103124;-58
2022/04/08 03:09:57;;;;;;;4.20;3.70;;;;;;;21.52;35.34;93945.88;6085848;28;103278;-57
2022/04/08 03:12:58;;;;;;;5.13;4.07;;;;;;;21.37;34.89;93921.75;6084794;28;103274;-58
2022/04/08 03:16:01;;;;;;;5.00;2.93;;;;;;;21.19;35.04;93937.88;6080322;28;104013;-61
2022/04/08 03:19:02;;;;;;;3.30;3.00;;;;;;;21.20;34.85;93941.31;6085478;28;103503;-57
2022/04/08 03:22:06;;;;;;;4.07;3.00;;;;;;;21.28;34.93;93937.78;6085301;28;103297;-60
2022/04/08 03:25:08;;;;;;;3.20;2.90;;;;;;;21.37;34.86;93937.72;6086818;28;103954;-59
2022/04/08 03:28:10;;;;;;;5.40;3.10;;;;;;;21.42;34.69;93943.59;6080176;28;103808;-58
2022/04/08 03:31:11;;;;;;;3.60;3.30;;;;;;;21.43;34.85;93963.78;6084424;28;103339;-60
2022/04/08 03:34:13;;;;;;;3.30;3.10;;;;;;;21.24;35.54;93965.38;6084535;28;103620;-59
2022/04/08 03:37:16;;;;;;;3.73;3.43;;;;;;;21.20;35.05;93963.38;6084984;28;103010;-58
2022/04/08 03:40:19;;;;;;;3.33;3.00;;;;;;;21.08;35.09;93962.53;6085457;28;104223;-57
2022/04/08 03:43:21;;;;;;;3.13;2.93;;;;;;;20.99;35.38;93983.06;6085499;28;103987;-60
2022/04/08 03:46:23;;;;;;;3.60;3.30;;;;;;;20.99;35.08;93988.38;6066998;28;103026;-57
2022/04/08 03:49:26;;;;;;;2.73;2.53;;;;;;;20.97;35.32;93985.25;6078550;28;104033;-58
2022/04/08 03:52:32;;;;;;;4.17;3.23;;;;;;;21.13;35.27;93994.25;6086821;28;104289;-59
2022/04/08 03:55:34;;;;;;;3.50;3.20;;;;;;;21.23;34.68;93999.19;6088387;28;102985;-59
2022/04/08 03:58:35;;;;;;;4.57;2.93;;;;;;;21.20;35.08;94002.50;6083090;28;104236;-59
2022/04/08 04:01:37;;;;;;;4.20;3.40;;;;;;;21.20;34.97;94019.25;6068602;28;104456;-62
2022/04/08 04:04:39;;;;;;;3.83;3.30;;;;;;;21.24;35.48;94019.38;6079412;28;104083;-60
2022/04/08 04:07:41;;;;;;;6.17;3.47;;;;;;;21.38;35.25;94019.88;6083118;28;103153;-62
2022/04/08 04:10:42;;;;;;;4.53;3.30;;;;;;;21.34;34.92;94032.28;6086148;28;104449;-59
2022/04/08 04:13:45;;;;;;;4.57;3.30;;;;;;;21.30;35.09;94033.25;6074702;28;103511;-60
2022/04/08 04:16:47;;;;;;;4.03;3.20;;;;;;;21.08;35.59;94003.22;6082165;28;103136;-59
2022/04/08 04:19:49;;;;;;;3.97;3.57;;;;;;;21.21;34.88;94041.31;6080295;28;104304;-60
2022/04/08 04:22:51;;;;;;;3.90;3.20;;;;;;;21.19;34.97;94044.28;6079437;28;103308;-59
2022/04/08 04:26:03;;;;;;;4.07;2.70;;;;;;;21.11;36.12;94050.44;5530499;28;10002119;-64
2022/04/08 04:29:05;;;;;;;5.10;3.50;;;;;;;21.19;36.09;94060.25;6066388;28;105081;-61
2022/04/08 04:32:07;;;;;;;7.03;3.70;;;;;;;21.17;35.75;94059.00;6091620;28;106420;-64
2022/04/08 04:35:09;;;;;;;5.47;3.70;;;;;;;21.25;34.88;94073.34;6099733;28;103752;-60
2022/04/08 04:38:17;;;;;;;5.80;2.70;;;;;;;21.13;35.48;94058.09;6085785;28;103974;-59
2022/04/08 04:41:20;;;;;;;7.20;3.20;;;;;;;21.36;34.86;94048.72;5156132;28;10000069;-62
2022/04/08 04:44:21;;;;;;;4.57;3.30;;;;;;;21.37;34.43;94058.25;6073265;28;103973;-59
2022/04/08 04:47:23;;;;;;;3.90;3.30;;;;;;;21.00;34.96;94065.19;6085156;28;103269;-60
2022/04/08 04:50:25;;;;;;;3.47;3.17;;;;;;;21.08;34.73;94079.56;6087163;28;103035;-59
2022/04/08 04:53:30;;;;;;;3.57;2.90;;;;;;;21.30;35.21;94068.63;6074711;28;103479;-59
2022/04/08 04:56:32;;;;;;;4.13;2.70;;;;;;;21.33;35.47;94101.78;6056222;28;103596;-59
2022/04/08 04:59:34;;;;;;;4.23;2.97;;;;;;;21.41;35.90;94106.28;6062247;28;103192;-59
2022/04/08 05:02:36;;;;;;;5.47;3.13;;;;;;;21.46;35.79;94108.75;6062075;28;102711;-59
2022/04/08 05:05:39;;;;;;;5.20;3.50;;;;;;;21.44;35.79;94109.06;6047364;28;102725;-60
2022/04/08 05:08:41;;;;;;;4.43;3.00;;;;;;;21.45;35.46;94115.16;6054147;28;103627;-60
2022/04/08 05:11:43;;;;;;;3.57;3.23;;;;;;;21.41;35.76;94106.28;6061473;28;102756;-61
2022/04/08 05:14:44;;;;;;;3.40;3.00;;;;;;;21.48;35.56;94125.94;6060929;28;103169;-61
2022/04/08 05:17:46;;;;;;;4.53;3.30;;;;;;;21.49;35.44;94127.50;6056978;28;103383;-62
2022/04/08 05:20:52;;;;;;;5.40;3.80;;;;;;;21.51;35.69;94127.97;6061664;28;103001;-59
2022/04/08 05:23:54;;;;;;;6.37;4.10;;;;;;;21.49;35.59;94130.16;6062649;28;103243;-59
2022/04/08 05:26:56;;;;;;;4.10;3.63;;;;;;;21.54;35.76;94144.41;6062242;28;103374;-58
2022/04/08 05:30:06;;;;;;;6.60;4.20;;;;;;;21.55;35.55;94149.41;6055910;28;102808;-61
2022/04/08 05:33:08;;;;;;;7.90;3.50;;;;;;;21.58;35.33;94145.31;6061499;28;103192;-59
2022/04/08 05:36:09;;;;;;;4.70;3.77;;;;;;;21.57;35.76;94139.19;6061281;28;102961;-59
2022/04/08 05:39:12;;;;;;;6.40;3.90;;;;;;;21.63;36.39;94158.41;6085373;28;102876;-64
2022/04/08 05:42:14;;;;;;;19.17;4.30;;;;;;;21.76;36.91;94155.50;6108688;28;102785;-57
2022/04/08 05:45:20;;;;;;;5.77;4.13;;;;;;;21.80;37.16;94153.75;6077568;28;103302;-59
2022/04/08 05:48:23;;;;;;;6.37;4.30;;;;;;;21.85;36.55;94160.03;6110006;28;103071;-60
2022/04/08 05:51:25;;;;;;;4.03;3.63;;;;;;;21.97;36.88;94157.41;6104257;28;102953;-59
2022/04/08 05:54:41;;;;;;;10.03;4.23;;;;;;;22.10;36.74;94164.34;6113877;28;102940;-59
2022/04/08 05:57:43;;;;;;;5.80;4.00;;;;;;;22.23;37.86;94163.31;6112976;28;102793;-61
2022/04/08 06:00:46;;;;;;;6.77;4.10;;;;;;;22.33;38.51;94168.19;6113641;28;103177;-58
2022/04/08 06:03:48;;;;;;;7.43;3.90;;;;;;;22.35;37.41;94163.34;6107285;28;102743;-58
2022/04/08 06:06:50;;;;;;;4.20;3.80;;;;;;;22.38;37.61;94181.34;6112681;28;102726;-59
2022/04/08 06:09:53;;;;;;;6.57;4.03;;;;;;;22.41;37.33;94177.25;6113169;28;103087;-62
2022/04/08 06:12:56;;;;;;;4.20;3.80;;;;;;;22.48;37.04;94176.69;6106783;28;102878;-59
2022/04/08 06:15:58;;;;;;;4.90;3.50;;;;;;;22.52;36.88;94183.72;6112934;28;102825;-58
2022/04/08 06:18:59;;;;;;;6.13;4.30;;;;;;;22.61;36.88;94171.09;6113215;28;103162;-58
2022/04/08 06:22:01;;;;;;;5.10;3.90;;;;;;;22.70;37.31;94161.13;6112341;28;102807;-60
2022/04/08 06:25:03;;;;;;;7.43;4.37;;;;;;;22.77;37.13;94163.25;6107392;28;102819;-60
2022/04/08 06:28:07;;;;;;;6.37;3.73;;;;;;;22.87;37.25;94183.38;6112607;28;103028;-60
2022/04/08 06:31:10;;;;;;;5.33;3.83;;;;;;;22.88;36.95;94177.72;6112892;28;102739;-60
2022/04/08 06:34:18;;;;;;;6.73;4.00;;;;;;;22.98;36.83;94192.50;6108262;28;102767;-60
2022/04/08 06:37:20;;;;;;;6.70;4.10;;;;;;;23.00;37.36;94188.38;6100025;28;102908;-62
2022/04/08 06:40:22;;;;;;;5.50;4.50;;;;;;;23.04;37.08;94180.53;6087989;28;102896;-58
2022/04/08 06:43:23;;;;;;;6.90;3.80;;;;;;;23.13;37.22;94189.19;6087644;28;103188;-58
2022/04/08 06:46:25;;;;;;;4.60;2.90;;;;;;;23.14;37.11;94180.06;6083830;28;103815;-59
2022/04/08 06:49:27;;;;;;;4.30;3.03;;;;;;;23.19;36.93;94189.75;6089445;28;103324;-61
2022/04/08 06:52:32;;;;;;;5.20;3.70;;;;;;;23.25;37.04;94199.88;6088937;28;102918;-63
2022/04/08 06:55:34;;;;;;;7.43;3.70;;;;;;;23.28;36.94;94207.22;6089277;28;103042;-59
2022/04/08 06:58:39;;;;;;;5.37;3.40;;;;;;;23.25;36.37;94204.44;6065594;28;102852;-61
2022/04/08 07:01:40;;;;;;;5.00;2.90;;;;;;;23.26;36.62;94203.31;6089079;28;103190;-59
2022/04/08 07:04:43;;;;;;;3.63;3.30;;;;;;;23.26;35.95;94214.00;6086845;28;102733;-58
2022/04/08 07:07:45;;;;;;;5.10;3.53;;;;;;;23.18;36.38;94204.19;6083021;28;102800;-59
2022/04/08 07:10:47;;;;;;;3.73;3.07;;;;;;;23.22;35.99;94205.09;6088601;28;102782;-60
2022/04/08 07:13:48;;;;;;;4.47;2.90;;;;;;;23.25;36.11;94193.75;6070498;28;103099;-59
2022/04/08 07:16:50;;;;;;;5.87;3.00;;;;;;;23.26;35.67;94188.09;6088749;28;102683;-60
2022/04/08 07:19:52;;;;;;;6.03;3.40;;;;;;;23.26;36.18;94201.44;6082592;28;103398;-59
2022/04/08 07:22:54;;;;;;;4.63;3.33;;;;;;;23.27;35.62;94202.22;6087748;28;103284;-59
2022/04/08 07:25:56;;;;;;;3.50;3.20;;;;;;;23.26;35.50;94201.44;6088786;28;102809;-59
2022/04/08 07:29:00;;;;;;;3.63;2.60;;;;;;;23.28;35.84;94209.09;6087373;28;103220;-61
2022/04/08 07:32:02;;;;;;;3.70;3.30;;;;;;;23.30;35.39;94206.91;6083363;28;103134;-59
2022/04/08 07:35:05;;;;;;;4.43;3.20;;;;;;;23.31;35.46;94221.81;6087231;28;103101;-59
2022/04/08 07:38:07;;;;;;;3.10;2.77;;;;;;;23.29;35.25;94221.38;6092301;28;103189;-58
2022/04/08 07:41:09;;;;;;;3.27;2.60;;;;;;;23.29;35.32;94219.47;6106688;28;103280;-58
2022/04/08 07:44:11;;;;;;;3.50;3.20;;;;;;;23.31;35.13;94216.47;6111928;28;103548;-59
2022/04/08 07:47:14;;;;;;;2.60;2.40;;;;;;;23.32;34.97;94212.69;6111344;28;102996;-60
2022/04/08 07:50:15;;;;;;;3.00;2.40;;;;;;;23.33;34.97;94218.81;6111620;28;102691;-60
2022/04/08 07:53:17;;;;;;;3.30;2.73;;;;;;;23.35;34.63;94225.34;6106947;28;103457;-59
2022/04/08 07:56:19;;;;;;;3.23;2.43;;;;;;;23.36;34.67;94239.53;6111495;28;102766;-58
2022/04/08 07:59:21;;;;;;;5.43;2.83;;;;;;;23.37;34.33;94239.19;6111854;28;103227;-61
2022/04/08 08:02:23;;;;;;;4.80;2.40;;;;;;;23.37;34.16;94243.75;6110304;28;102781;-60
2022/04/08 08:05:26;;;;;;;3.00;2.80;;;;;;;23.38;34.08;94253.31;6108437;28;102821;-58
2022/04/08 08:08:29;;;;;;;2.83;2.17;;;;;;;23.40;34.44;94251.09;6111674;28;102739;-61
2022/04/08 08:11:31;;;;;;;2.23;2.03;;;;;;;23.40;33.95;94249.19;6111160;28;102904;-59
2022/04/08 08:14:32;;;;;;;3.13;2.33;;;;;;;23.46;33.93;94247.06;6104878;28;102795;-59
2022/04/08 08:17:34;;;;;;;3.37;2.80;;;;;;;23.51;33.88;94244.16;6111403;28;102758;-58
2022/04/08 08:20:37;;;;;;;4.00;2.30;;;;;;;23.53;34.15;94250.75;6112048;28;103083;-58
2022/04/08 08:23:38;;;;;;;3.30;3.00;;;;;;;23.53;34.04;94249.97;6111113;28;102772;-60
2022/04/08 08:26:40;;;;;;;4.17;3.37;;;;;;;23.57;33.85;94253.53;6105150;28;102921;-58
2022/04/08 08:29:42;;;;;;;3.53;3.23;;;;;;;23.55;34.02;94255.75;6111565;28;102799;-58
2022/04/08 08:32:48;;;;;;;3.93;3.60;;;;;;;23.52;33.71;94251.06;6111902;28;103198;-58
2022/04/08 08:35:50;;;;;;;4.70;3.23;;;;;;;23.50;34.08;94261.31;6104361;28;102884;-59
2022/04/08 08:38:52;;;;;;;3.13;2.83;;;;;;;23.49;34.12;94259.75;6100239;28;102767;-60
2022/04/08 08:41:56;;;;;;;4.40;3.40;;;;;;;23.47;34.10;94259.31;6086530;28;103105;-59
2022/04/08 08:44:57;;;;;;;3.57;3.27;;;;;;;23.49;33.75;94262.41;6086124;28;103673;-62
2022/04/08 08:48:01;;;;;;;4.67;3.10;;;;;;;23.49;34.24;94259.75;6081429;28;102695;-60
2022/04/08 08:51:06;;;;;;;3.77;3.37;;;;;;;23.49;34.23;94262.41;6087530;28;103222;-59
2022/04/08 08:54:08;;;;;;;3.80;3.30;;;;;;;23.50;34.17;94261.31;6086890;28;102819;-58
2022/04/08 08:57:10;;;;;;;4.43;3.43;;;;;;;23.50;34.51;94270.09;6086670;28;102782;-58
2022/04/08 09:00:13;;;;;;;6.10;3.20;;;;;;;23.51;34.33;94265.53;6064034;28;102881;-60
2022/04/08 09:03:16;;;;;;;4.73;3.23;;;;;;;23.49;34.63;94273.88;6085956;28;102686;-59
2022/04/08 09:06:18;;;;;;;4.57;3.10;;;;;;;23.47;34.42;94275.34;6088002;28;103259;-59
2022/04/08 09:09:32;;;;;;;4.77;3.33;;;;;;;23.47;34.44;94272.66;6080656;28;103115;-60
2022/04/08 09:12:34;;;;;;;6.00;3.33;;;;;;;23.47;34.52;94270.00;6085975;28;103108;-60
2022/04/08 09:15:39;;;;;;;3.23;2.93;;;;;;;23.45;34.61;94264.97;6086283;28;102979;-60
2022/04/08 09:18:48;;;;;;;4.60;3.30;;;;;;;23.43;35.33;94263.75;6086435;28;103410;-58
2022/04/08 09:21:54;;;;;;;4.07;2.90;;;;;;;23.45;35.21;94254.31;6080805;28;102790;-59
2022/04/08 09:25:12;;;;;;;6.13;3.50;;;;;;;23.45;34.97;94256.19;6085857;28;102727;-60
2022/04/08 09:28:17;;;;;;;4.13;3.47;;;;;;;23.46;35.05;94255.06;6086205;28;103156;-60
2022/04/08 09:31:21;;;;;;;4.70;3.77;;;;;;;23.47;35.13;94259.31;6081146;28;102970;-59
2022/04/08 09:34:23;;;;;;;4.63;3.43;;;;;;;23.47;34.80;94259.31;6086088;28;102976;-58
2022/04/08 09:37:25;;;;;;;5.20;4.20;;;;;;;23.40;34.93;94237.72;6085485;28;102736;-60
2022/04/08 09:40:35;;;;;;;5.13;3.40;;;;;;;23.42;35.30;94246.19;6108958;28;103335;-60
2022/04/08 09:43:38;;;;;;;4.30;3.43;;;;;;;23.43;34.89;94247.75;6104479;28;103639;-59
2022/04/08 09:46:40;;;;;;;3.07;2.87;;;;;;;23.43;35.10;94237.06;6110180;28;103289;-59
2022/04/08 09:49:42;;;;;;;3.57;3.23;;;;;;;23.42;34.56;94246.19;6107099;28;103158;-60
2022/04/08 09:52:44;;;;;;;3.67;3.37;;;;;;;23.42;34.83;94240.84;6080046;28;102830;-58
2022/04/08 09:55:46;;;;;;;3.73;3.43;;;;;;;23.40;34.93;94248.41;6084721;28;102810;-59
2022/04/08 09:59:12;;;;;;;4.40;4.00;;;;;;;23.37;34.84;94249.09;6086395;28;102821;-61
2022/04/08 10:02:16;;;;;;;3.77;3.47;;;;;;;23.37;35.17;94249.88;6085842;28;102758;-60
2022/04/08 10:05:24;;;;;;;3.63;3.33;;;;;;;23.43;35.07;94247.75;6080944;28;103804;-58
2022/04/08 10:08:27;;;;;;;3.60;3.30;;;;;;;23.46;35.35;94245.19;6085776;28;103424;-59
2022/04/08 10:11:40;;;;;;;4.33;3.50;;;;;;;23.45;35.53;94246.28;6085042;28;103000;-59
2022/04/08 10:14:45;;;;;;;8.93;4.07;;;;;;;23.46;35.35;94247.06;6079911;28;102781;-59
2022/04/08 10:18:00;;;;;;;7.73;3.60;;;;;;;23.44;35.66;94250.06;6085211;28;102719;-59
2022/04/08 10:21:03;;;;;;;5.60;3.80;;;;;;;23.44;35.45;94243.97;6085874;28;103312;-59
2022/04/08 10:24:13;;;;;;;5.17;3.50;;;;;;;23.38;35.48;94234.63;6085737;28;102773;-59
2022/04/08 10:27:15;;;;;;;4.83;3.30;;;;;;;23.34;35.10;94245.16;6080032;28;103240;-59
2022/04/08 10:30:23;;;;;;;3.50;3.20;;;;;;;23.32;34.77;94246.63;6085556;28;102759;-59
2022/04/08 10:33:27;;;;;;;6.47;3.60;;;;;;;23.27;34.79;94240.34;6085240;28;102707;-59
2022/04/08 10:36:39;;;;;;;4.40;3.37;;;;;;;23.26;34.85;94238.81;6083301;28;102763;-60
2022/04/08 10:39:42;;;;;;;3.10;2.90;;;;;;;23.24;34.83;94241.03;6104737;28;102764;-60
2022/04/08 10:42:45;;;;;;;4.47;3.63;;;;;;;23.22;34.77;94239.81;6112806;28;102734;-59
2022/04/08 10:45:58;;;;;;;3.50;3.20;;;;;;;23.20;34.69;94237.47;6113529;28;103321;-58
2022/04/08 10:49:00;;;;;;;3.30;3.00;;;;;;;23.18;34.48;94231.66;6107295;28;102727;-61
2022/04/08 10:52:01;;;;;;;3.30;3.00;;;;;;;23.18;34.83;94226.31;6113846;28;103133;-59
2022/04/08 10:55:11;;;;;;;4.37;3.17;;;;;;;23.18;34.92;94226.31;6112721;28;102878;-60
2022/04/08 10:58:15;;;;;;;5.10;3.10;;;;;;;23.16;34.57;94223.22;6113586;28;102795;-59
2022/04/08 11:01:19;;;;;;;4.27;3.33;;;;;;;23.15;34.56;94220.88;6107630;28;103088;-60
2022/04/08 11:04:21;;;;;;;3.13;2.80;;;;;;;23.13;34.34;94209.75;6113177;28;102966;-59
2022/04/08 11:07:24;;;;;;;3.47;3.10;;;;;;;23.15;34.78;94210.19;6113101;28;102800;-60
2022/04/08 11:10:25;;;;;;;4.23;3.33;;;;;;;23.13;34.56;94215.88;6105766;28;102907;-59
2022/04/08 11:13:27;;;;;;;3.20;2.80;;;;;;;23.14;34.80;94213.97;6094534;28;102818;-59
2022/04/08 11:16:38;;;;;;;4.40;3.60;;;;;;;23.15;34.96;94218.19;6113057;28;103134;-59
2022/04/08 11:19:40;;;;;;;4.10;3.70;;;;;;;23.13;34.64;94201.75;6113443;28;103301;-58
2022/04/08 11:22:44;;;;;;;3.47;2.97;;;;;;;23.13;34.89;94215.88;6107541;28;102765;-60
2022/04/08 11:25:46;;;;;;;3.20;3.00;;;;;;;23.11;34.80;94204.75;6112246;28;103341;-59
2022/04/08 11:28:47;;;;;;;3.40;3.10;;;;;;;23.10;34.55;94216.53;6108436;28;102727;-58
2022/04/08 11:32:11;;;;;;;3.70;3.40;;;;;;;23.11;34.58;94203.97;6053283;28;103247;-58
2022/04/08 11:35:14;;;;;;;3.77;3.10;;;;;;;23.09;34.87;94201.63;6085737;28;102755;-59
2022/04/08 11:38:17;;;;;;;3.50;3.10;;;;;;;23.07;34.60;94208.41;6093441;28;102702;-58
2022/04/08 11:41:20;;;;;;;3.87;3.47;;;;;;;23.08;34.29;94212.66;6111554;28;102672;-59
2022/04/08 11:44:23;;;;;;;3.57;3.27;;;;;;;23.05;34.96;94203.41;6106862;28;102808;-59
2022/04/08 11:47:32;;;;;;;3.30;3.10;;;;;;;23.06;34.92;94202.31;6111824;28;103193;-59
2022/04/08 11:50:37;;;;;;;3.80;3.50;;;;;;;23.04;34.56;94191.19;6111090;28;102758;-58
2022/04/08 11:53:46;;;;;;;3.50;3.20;;;;;;;23.03;35.02;94186.97;6108170;28;103212;-59
2022/04/08 11:56:53;;;;;;;4.63;4.00;;;;;;;23.03;34.58;94186.19;6111642;28;102851;-61
2022/04/08 11:59:55;;;;;;;5.23;4.73;;;;;;;23.01;34.86;94179.28;6111429;28;103018;-58
2022/04/08 12:02:58;;;;;;;5.53;5.13;;;;;;;23.00;34.23;94172.38;6111466;28;103154;-59
2022/04/08 12:06:01;;;;;;;5.80;5.30;;;;;;;23.01;34.97;94179.28;6106219;28;103633;-59
2022/04/08 12:09:14;;;;;;;5.77;5.27;;;;;;;23.01;35.12;94189.16;6111049;28;102707;-59
2022/04/08 12:12:29;;;;;;;7.23;6.53;;;;;;;23.01;35.04;94183.81;6110706;28;102752;-62
2022/04/08 12:15:30;;;;;;;8.60;7.80;;;;;;;23.00;34.63;94175.03;6108892;28;102762;-59
2022/04/08 12:18:32;;;;;;;8.03;7.33;;;;;;;22.95;34.74;94174.50;6106910;28;104558;-59
2022/04/08 12:21:37;;;;;;;7.53;7.00;;;;;;;22.98;34.99;94185.28;6111557;28;102690;-60
2022/04/08 12:24:43;;;;;;;8.53;7.73;;;;;;;22.97;35.00;94183.72;6111226;28;103241;-59
2022/04/08 12:27:54;;;;;;;9.20;8.40;;;;;;;22.98;35.19;94168.47;6106726;28;104026;-59
2022/04/08 12:31:14;;;;;;;9.10;8.30;;;;;;;22.98;34.64;94179.94;6110203;28;102730;-59
2022/04/08 12:34:17;;;;;;;10.00;9.10;;;;;;;22.98;34.83;94168.47;6111064;28;103240;-62
2022/04/08 12:37:19;;;;;;;10.07;9.27;;;;;;;22.96;35.18;94160.81;6093417;28;102667;-61
2022/04/08 12:40:21;;;;;;;9.23;8.43;;;;;;;22.96;35.14;94155.47;6082429;28;102864;-58
2022/04/08 12:43:22;;;;;;;8.80;8.10;;;;;;;22.96;35.18;94150.16;6086435;28;103191;-59
2022/04/08 12:46:24;;;;;;;8.43;7.73;;;;;;;22.98;35.14;94155.16;6069649;28;103298;-59
2022/04/08 12:49:26;;;;;;;8.50;7.70;;;;;;;22.96;34.99;94160.03;6081543;28;102762;-61
2022/04/08 12:52:28;;;;;;;7.53;6.93;;;;;;;22.99;34.55;94159.38;6086383;28;102714;-58
2022/04/08 12:55:29;;;;;;;8.63;7.93;;;;;;;23.01;34.85;94146.47;6086731;28;103223;-59
2022/04/08 12:58:31;;;;;;;7.60;6.83;;;;;;;23.02;34.92;94148.06;6087202;28;103271;-59
2022/04/08 13:01:33;;;;;;;7.27;6.67;;;;;;;23.01;35.04;94151.81;6080792;28;103391;-59
2022/04/08 13:04:35;;;;;;;6.97;6.40;;;;;;;23.01;34.69;94151.81;6086946;28;103046;-59
2022/04/08 13:07:37;;;;;;;7.73;7.10;;;;;;;23.00;34.57;94145.69;6086121;28;102716;-59
2022/04/08 13:10:39;;;;;;;7.33;6.73;;;;;;;23.01;34.71;94165.16;6085557;28;102777;-61
2022/04/08 13:13:40;;;;;;;8.57;7.80;;;;;;;23.01;34.64;94157.91;6081410;28;102988;-59
2022/04/08 13:16:42;;;;;;;6.90;6.40;;;;;;;23.03;35.06;94159.50;6086203;28;103229;-59
2022/04/08 13:19:48;;;;;;;7.17;6.60;;;;;;;23.03;34.53;94152.28;6086253;28;103122;-59
2022/04/08 13:22:50;;;;;;;6.57;6.07;;;;;;;23.02;34.71;94145.38;6080387;28;103739;-59
2022/04/08 13:25:52;;;;;;;6.70;6.20;;;;;;;23.00;35.19;94159.03;6085346;28;102773;-60
2022/04/08 13:28:55;;;;;;;6.80;6.17;;;;;;;22.99;34.76;94154.81;6085670;28;102730;-58
2022/04/08 13:31:56;;;;;;;7.27;6.57;;;;;;;23.08;35.07;94151.28;6086464;28;103114;-61
2022/04/08 13:34:58;;;;;;;7.10;6.50;;;;;;;23.11;34.89;94161.28;6076525;28;103939;-59
2022/04/08 13:38:00;;;;;;;6.67;6.07;;;;;;;23.14;34.89;94163.28;6087115;28;103252;-58
2022/04/08 13:41:02;;;;;;;7.03;6.43;;;;;;;23.12;35.24;94155.59;6109395;28;102742;-57
2022/04/08 13:44:04;;;;;;;6.40;5.80;;;;;;;23.15;35.39;94151.47;6103797;28;102831;-60
2022/04/08 13:47:06;;;;;;;5.83;5.33;;;;;;;23.12;35.26;94162.81;6109787;28;102886;-60
2022/04/08 13:50:08;;;;;;;6.63;6.03;;;;;;;23.08;35.06;94161.94;6109598;28;102691;-58
2022/04/08 13:53:10;;;;;;;6.73;5.87;;;;;;;23.06;35.79;94156.94;6108773;28;103278;-58
2022/04/08 13:56:11;;;;;;;8.83;6.30;;;;;;;23.09;36.18;94152.81;6103980;28;102877;-59
2022/04/08 13:59:13;;;;;;;7.30;5.60;;;;;;;23.06;35.75;94150.84;6109151;28;103128;-59
2022/04/08 14:02:15;;;;;;;8.63;5.90;;;;;;;23.05;36.17;94146.59;6109156;28;103513;-61
2022/04/08 14:05:17;;;;;;;5.77;5.17;;;;;;;23.05;35.81;94152.72;6109553;28;102792;-59
2022/04/08 14:08:19;;;;;;;6.03;5.03;;;;;;;23.01;35.70;94152.59;6102330;28;103390;-59
2022/04/08 14:11:21;;;;;;;7.23;5.23;;;;;;;23.04;36.34;94147.72;6109142;28;103142;-60